createdAt,value
2022-08-05T00:00:09.986Z,26.36
2022-08-05T00:01:21.005Z,26.35
2022-08-05T00:02:11.454Z,26.36
2022-08-05T00:03:08.955Z,26.36
2022-08-05T00:04:09.948Z,26.36
2022-08-05T00:05:08.955Z,26.35
2022-08-05T00:06:29.063Z,26.35
2022-08-05T00:07:32.081Z,26.35
2022-08-05T00:08:34.094Z,26.36
2022-08-05T00:09:12.735Z,26.32
2022-08-05T00:10:09.926Z,26.36
2022-08-05T00:11:20.488Z,26.37
2022-08-05T00:12:13.140Z,26.37
2022-08-05T00:13:08.847Z,26.37
2022-08-05T00:14:12.908Z,26.31
2022-08-05T00:15:13.969Z,26.28
2022-08-05T00:16:10.876Z,26.27
2022-08-05T00:17:19.538Z,26.24
2022-08-05T00:18:09.780Z,26.21
2022-08-05T00:19:09.776Z,26.17
2022-08-05T00:20:08.764Z,26.08
2022-08-05T00:21:08.775Z,26.08
2022-08-05T00:22:11.370Z,26.09
2022-08-05T00:23:13.110Z,26.06
2022-08-05T00:24:10.995Z,25.91
2022-08-05T00:25:11.905Z,25.72
2022-08-05T00:26:08.731Z,25.61
2022-08-05T00:27:10.483Z,25.53
2022-08-05T00:28:09.673Z,25.47
2022-08-05T00:29:08.662Z,25.47
2022-08-05T00:30:11.323Z,25.44
2022-08-05T00:31:08.635Z,25.46
2022-08-05T00:32:12.551Z,25.46
2022-08-05T00:34:42.498Z,25.47
2022-08-05T00:34:56.489Z,25.47
2022-08-05T00:35:09.604Z,25.53
2022-08-05T00:36:15.172Z,25.56
2022-08-05T00:37:13.768Z,25.61
2022-08-05T00:38:09.438Z,25.64
2022-08-05T00:39:08.590Z,25.62
2022-08-05T00:40:09.593Z,25.62
2022-08-05T00:41:11.684Z,25.64
2022-08-05T00:42:08.509Z,25.62
2022-08-05T00:43:08.516Z,25.57
2022-08-05T00:44:09.487Z,25.59
2022-08-05T00:45:11.757Z,25.57
2022-08-05T00:46:09.479Z,25.56
2022-08-05T00:47:08.458Z,25.50
2022-08-05T00:48:09.457Z,25.32
2022-08-05T00:49:08.429Z,25.24
2022-08-05T00:50:09.422Z,25.19
2022-08-05T00:51:08.947Z,25.16
2022-08-05T00:52:09.394Z,25.15
2022-08-05T00:53:09.806Z,25.10
2022-08-05T00:54:09.403Z,25.07
2022-08-05T00:55:08.354Z,25.05
2022-08-05T00:56:08.381Z,24.95
2022-08-05T00:57:08.350Z,24.85
2022-08-05T00:58:08.319Z,24.79
2022-08-05T00:59:08.333Z,24.73
2022-08-05T01:00:11.179Z,24.69
2022-08-05T01:01:09.632Z,24.68
2022-08-05T01:02:08.293Z,24.63
2022-08-05T01:03:08.277Z,24.61
2022-08-05T01:04:14.225Z,24.60
2022-08-05T01:05:09.998Z,24.56
2022-08-05T01:06:14.127Z,24.42
2022-08-05T01:07:13.596Z,23.98
2022-08-05T01:08:40.112Z,23.55
2022-08-05T01:09:09.227Z,22.97
2022-08-05T01:10:09.185Z,22.68
2022-08-05T01:11:08.179Z,22.32
2022-08-05T01:12:17.964Z,22.09
2022-08-05T01:13:13.399Z,21.88
2022-08-05T01:14:09.232Z,21.81
2022-08-05T01:15:35.371Z,21.74
2022-08-05T01:16:09.116Z,21.69
2022-08-05T01:17:08.096Z,21.76
2022-08-05T01:18:08.448Z,21.81
2022-08-05T01:19:08.095Z,21.79
2022-08-05T01:20:08.101Z,21.74
2022-08-05T01:21:08.050Z,21.78
2022-08-05T01:22:08.050Z,21.83
2022-08-05T01:23:15.397Z,21.82
2022-08-05T01:24:14.183Z,21.85
2022-08-05T01:25:09.028Z,21.83
2022-08-05T01:26:07.996Z,21.82
2022-08-05T01:27:24.334Z,21.83
2022-08-05T01:28:08.980Z,21.82
2022-08-05T01:29:07.959Z,21.85
2022-08-05T01:30:12.417Z,21.90
2022-08-05T01:31:08.962Z,21.98
2022-08-05T01:32:12.597Z,21.99
2022-08-05T01:33:08.911Z,21.94
2022-08-05T01:34:08.466Z,21.90
2022-08-05T01:35:10.560Z,21.83
2022-08-05T01:36:07.890Z,21.88
2022-08-05T01:37:09.020Z,21.91
2022-08-05T01:38:07.856Z,21.88
2022-08-05T01:39:08.898Z,21.75
2022-08-05T01:40:07.892Z,21.85
2022-08-05T01:41:07.823Z,21.92
2022-08-05T01:42:09.708Z,21.95
2022-08-05T01:43:07.833Z,21.95
2022-08-05T01:44:09.931Z,21.94
2022-08-05T01:45:08.238Z,21.91
2022-08-05T01:46:16.472Z,21.91
2022-08-05T01:47:09.648Z,21.97
2022-08-05T01:48:10.312Z,21.99
2022-08-05T01:49:22.740Z,21.98
2022-08-05T01:50:08.730Z,22.02
2022-08-05T01:51:12.317Z,22.07
2022-08-05T01:52:17.343Z,22.16
2022-08-05T01:53:08.686Z,22.20
2022-08-05T01:54:07.698Z,22.23
2022-08-05T01:55:07.695Z,22.27
2022-08-05T01:56:08.952Z,22.28
2022-08-05T01:58:11.968Z,22.10
2022-08-05T01:58:15.459Z,22.04
2022-08-05T01:59:08.630Z,22.04
2022-08-05T02:00:11.896Z,22.04
2022-08-05T02:01:07.620Z,22.09
2022-08-05T02:02:10.828Z,22.04
2022-08-05T02:03:07.605Z,21.91
2022-08-05T02:04:08.618Z,21.88
2022-08-05T02:05:11.808Z,21.90
2022-08-05T02:06:33.548Z,21.90
2022-08-05T02:07:08.558Z,21.79
2022-08-05T02:08:07.535Z,21.71
2022-08-05T02:09:07.540Z,21.69
2022-08-05T02:10:07.844Z,21.72
2022-08-05T02:11:07.490Z,21.69
2022-08-05T02:12:10.123Z,21.67
2022-08-05T02:13:12.998Z,21.64
2022-08-05T02:14:08.461Z,21.60
2022-08-05T02:15:07.457Z,21.64
2022-08-05T02:16:07.493Z,21.67
2022-08-05T02:17:08.437Z,21.61
2022-08-05T02:18:31.407Z,21.57
2022-08-05T02:19:08.401Z,21.53
2022-08-05T02:20:07.397Z,21.57
2022-08-05T02:21:15.331Z,21.64
2022-08-05T02:22:08.402Z,21.64
2022-08-05T02:23:08.802Z,21.66
2022-08-05T02:24:07.345Z,21.59
2022-08-05T02:25:07.413Z,21.60
2022-08-05T02:26:07.323Z,21.60
2022-08-05T02:27:09.124Z,21.61
2022-08-05T02:28:08.644Z,21.61
2022-08-05T02:29:07.296Z,21.61
2022-08-05T02:30:08.298Z,21.63
2022-08-05T02:31:07.671Z,21.59
2022-08-05T02:32:08.399Z,21.48
2022-08-05T02:33:07.245Z,21.48
2022-08-05T02:34:07.235Z,21.48
2022-08-05T02:35:09.582Z,21.48
2022-08-05T02:36:09.400Z,21.46
2022-08-05T02:37:07.207Z,21.46
2022-08-05T02:38:09.245Z,21.50
2022-08-05T02:39:08.810Z,21.50
2022-08-05T02:40:07.177Z,21.48
2022-08-05T02:41:16.974Z,21.45
2022-08-05T02:42:08.141Z,21.48
2022-08-05T02:43:07.391Z,21.50
2022-08-05T02:44:11.953Z,21.53
2022-08-05T02:45:08.119Z,21.57
2022-08-05T02:46:07.108Z,21.57
2022-08-05T02:47:08.098Z,21.54
2022-08-05T02:48:12.815Z,21.48
2022-08-05T02:49:11.097Z,21.46
2022-08-05T02:50:07.282Z,21.45
2022-08-05T02:51:07.057Z,21.41
2022-08-05T02:52:07.763Z,21.42
2022-08-05T02:53:07.032Z,21.45
2022-08-05T02:54:07.037Z,21.48
2022-08-05T02:55:11.012Z,21.51
2022-08-05T02:56:08.004Z,21.53
2022-08-05T02:57:10.311Z,21.56
2022-08-05T02:58:10.337Z,21.57
2022-08-05T02:59:07.988Z,21.56
2022-08-05T03:00:06.985Z,21.54
2022-08-05T03:01:06.985Z,21.51
2022-08-05T03:02:06.935Z,21.54
2022-08-05T03:03:07.765Z,21.57
2022-08-05T03:04:11.826Z,21.60
2022-08-05T03:05:07.933Z,21.57
2022-08-05T03:06:55.755Z,21.61
2022-08-05T03:07:07.905Z,21.53
2022-08-05T03:08:09.280Z,21.46
2022-08-05T03:09:06.843Z,21.42
2022-08-05T03:10:06.836Z,21.35
2022-08-05T03:11:57.887Z,21.29
2022-08-05T03:12:07.956Z,21.27
2022-08-05T03:13:52.279Z,21.27
2022-08-05T03:14:45.965Z,21.27
2022-08-05T03:15:37.247Z,21.32
2022-08-05T03:16:36.252Z,21.34
2022-08-05T03:17:41.809Z,21.32
2022-08-05T03:18:37.210Z,21.34
2022-08-05T03:19:37.203Z,21.36
2022-08-05T03:20:36.179Z,21.36
2022-08-05T03:21:41.511Z,21.38
2022-08-05T03:22:37.186Z,21.39
2022-08-05T03:23:37.142Z,21.38
2022-08-05T03:24:36.149Z,21.39
2022-08-05T03:26:04.530Z,21.38
2022-08-05T03:26:37.112Z,21.38
2022-08-05T03:27:59.196Z,21.30
2022-08-05T03:28:37.114Z,21.30
2022-08-05T03:29:44.471Z,21.29
2022-08-05T03:30:38.257Z,21.29
2022-08-05T03:31:56.083Z,21.23
2022-08-05T03:32:37.053Z,21.27
2022-08-05T03:33:49.308Z,21.30
2022-08-05T03:34:37.047Z,21.30
2022-08-05T03:35:40.723Z,21.29
2022-08-05T03:36:36.995Z,21.27
2022-08-05T03:37:40.990Z,21.27
2022-08-05T03:38:37.301Z,21.27
2022-08-05T03:39:47.390Z,21.24
2022-08-05T03:40:36.980Z,21.26
2022-08-05T03:41:38.767Z,21.24
2022-08-05T03:42:51.462Z,21.24
2022-08-05T03:44:08.930Z,21.27
2022-08-05T03:44:36.927Z,21.29
2022-08-05T03:45:57.177Z,21.27
2022-08-05T03:46:36.881Z,21.27
2022-08-05T03:47:41.872Z,21.23
2022-08-05T03:48:36.925Z,21.21
2022-08-05T03:49:51.687Z,21.26
2022-08-05T03:50:36.861Z,21.29
2022-08-05T03:52:48.779Z,21.27
2022-08-05T03:55:34.772Z,21.35
2022-08-05T03:56:00.814Z,21.35
2022-08-05T03:56:01.608Z,21.35
2022-08-05T03:56:05.472Z,21.35
2022-08-05T03:56:36.868Z,21.35
2022-08-05T03:57:42.308Z,21.38
2022-08-05T03:58:36.742Z,21.36
2022-08-05T03:59:47.065Z,21.38
2022-08-05T04:00:36.725Z,21.39
2022-08-05T04:01:36.751Z,21.39
2022-08-05T04:02:39.105Z,21.38
2022-08-05T04:03:38.096Z,21.35
2022-08-05T04:04:35.671Z,21.29
2022-08-05T04:05:35.673Z,21.27
2022-08-05T04:06:35.663Z,21.27
2022-08-05T04:07:35.643Z,21.24
2022-08-05T04:08:37.094Z,21.23
2022-08-05T04:09:36.535Z,21.19
2022-08-05T04:10:38.113Z,21.19
2022-08-05T04:11:47.075Z,21.19
2022-08-05T04:13:10.230Z,21.14
2022-08-05T04:14:10.213Z,21.11
2022-08-05T04:15:15.672Z,21.06
2022-08-05T04:16:11.191Z,21.09
2022-08-05T04:17:10.216Z,21.11
2022-08-05T04:18:12.738Z,21.16
2022-08-05T04:19:11.160Z,21.17
2022-08-05T04:20:10.154Z,21.21
2022-08-05T04:21:11.031Z,21.26
2022-08-05T04:22:12.309Z,21.29
2022-08-05T04:23:12.306Z,21.32
2022-08-05T04:24:19.378Z,21.35
2022-08-05T04:25:11.102Z,21.38
2022-08-05T04:26:10.091Z,21.41
2022-08-05T04:27:10.074Z,21.39
2022-08-05T04:28:11.272Z,21.36
2022-08-05T04:29:10.074Z,21.42
2022-08-05T04:30:10.080Z,21.50
2022-08-05T04:31:10.611Z,21.54
2022-08-05T04:32:10.052Z,21.51
2022-08-05T04:33:10.008Z,21.48
2022-08-05T04:34:33.117Z,21.46
2022-08-05T04:35:17.707Z,21.53
2022-08-05T04:36:38.181Z,21.50
2022-08-05T04:37:10.978Z,21.54
2022-08-05T04:38:09.959Z,21.60
2022-08-05T04:39:11.013Z,21.54
2022-08-05T04:40:09.937Z,21.51
2022-08-05T04:41:10.133Z,21.50
2022-08-05T04:42:09.917Z,21.44
2022-08-05T04:43:11.006Z,21.42
2022-08-05T04:44:10.891Z,21.48
2022-08-05T04:45:09.898Z,21.46
2022-08-05T04:46:09.863Z,21.44
2022-08-05T04:47:10.477Z,21.48
2022-08-05T04:48:16.387Z,21.38
2022-08-05T04:49:14.624Z,21.29
2022-08-05T04:50:11.360Z,21.23
2022-08-05T04:51:11.101Z,21.23
2022-08-05T04:52:09.804Z,21.19
2022-08-05T04:53:09.790Z,21.16
2022-08-05T04:54:09.843Z,21.13
2022-08-05T04:55:14.482Z,21.06
2022-08-05T04:56:32.998Z,21.08
2022-08-05T04:57:10.751Z,21.08
2022-08-05T04:58:12.455Z,21.06
2022-08-05T04:59:21.544Z,21.08
2022-08-05T05:00:10.712Z,21.04
2022-08-05T05:01:09.769Z,21.04
2022-08-05T05:02:36.819Z,21.04
2022-08-05T05:03:10.769Z,21.05
2022-08-05T05:04:09.692Z,21.04
2022-08-05T05:05:26.497Z,21.05
2022-08-05T05:06:39.594Z,21.06
2022-08-05T05:07:10.701Z,21.08
2022-08-05T05:08:14.500Z,21.11
2022-08-05T05:09:10.603Z,21.13
2022-08-05T05:10:09.598Z,21.16
2022-08-05T05:11:09.582Z,21.14
2022-08-05T05:12:09.574Z,21.14
2022-08-05T05:13:09.595Z,21.14
2022-08-05T05:14:09.574Z,21.17
2022-08-05T05:15:10.886Z,21.20
2022-08-05T05:16:09.527Z,21.17
2022-08-05T05:17:09.634Z,21.21
2022-08-05T05:18:09.497Z,21.23
2022-08-05T05:19:19.498Z,21.24
2022-08-05T05:20:10.489Z,21.23
2022-08-05T05:21:09.468Z,21.23
2022-08-05T05:22:22.705Z,21.24
2022-08-05T05:23:20.032Z,21.24
2022-08-05T05:24:10.462Z,21.24
2022-08-05T05:25:16.393Z,21.24
2022-08-05T05:26:10.418Z,21.27
2022-08-05T05:27:09.408Z,21.27
2022-08-05T05:28:09.433Z,21.32
2022-08-05T05:29:14.388Z,21.35
2022-08-05T05:30:28.765Z,21.36
2022-08-05T05:31:10.353Z,21.39
2022-08-05T05:32:12.651Z,21.45
2022-08-05T05:33:15.994Z,21.51
2022-08-05T05:34:10.320Z,21.59
2022-08-05T05:35:09.349Z,21.67
2022-08-05T05:36:09.554Z,21.72
2022-08-05T05:37:09.299Z,21.79
2022-08-05T05:38:13.187Z,21.83
2022-08-05T05:39:11.060Z,21.83
2022-08-05T05:40:09.262Z,21.88
2022-08-05T05:41:09.252Z,21.85
2022-08-05T05:42:09.251Z,21.88
2022-08-05T05:43:09.251Z,21.95
2022-08-05T05:44:35.848Z,21.95
2022-08-05T05:45:10.202Z,21.85
2022-08-05T05:46:16.013Z,21.78
2022-08-05T05:47:13.293Z,21.79
2022-08-05T05:48:10.174Z,21.74
2022-08-05T05:49:22.660Z,21.71
2022-08-05T05:50:10.152Z,21.67
2022-08-05T05:51:15.623Z,21.66
2022-08-05T05:52:12.974Z,21.69
2022-08-05T05:53:22.097Z,21.72
2022-08-05T05:54:11.627Z,21.83
2022-08-05T05:55:13.367Z,22.01
2022-08-05T05:56:09.091Z,22.13
2022-08-05T05:57:18.922Z,22.28
2022-08-05T05:58:10.056Z,22.41
2022-08-05T05:59:09.035Z,22.53
2022-08-05T06:00:10.242Z,22.64
2022-08-05T06:01:12.743Z,22.72
2022-08-05T06:02:10.036Z,22.74
2022-08-05T06:03:39.845Z,22.75
2022-08-05T06:04:12.182Z,22.80
2022-08-05T06:05:10.480Z,22.86
2022-08-05T06:06:09.972Z,22.82
2022-08-05T06:07:08.985Z,22.77
2022-08-05T06:08:08.972Z,22.74
2022-08-05T06:09:08.917Z,22.65
2022-08-05T06:10:10.470Z,22.62
2022-08-05T06:11:08.901Z,22.60
2022-08-05T06:12:09.504Z,22.59
2022-08-05T06:13:08.941Z,22.62
2022-08-05T06:14:08.870Z,22.62
2022-08-05T06:15:10.579Z,22.54
2022-08-05T06:16:28.661Z,22.53
2022-08-05T06:17:22.020Z,22.53
2022-08-05T06:18:09.851Z,22.53
2022-08-05T06:19:08.800Z,22.49
2022-08-05T06:20:08.798Z,22.52
2022-08-05T06:21:18.667Z,22.59
2022-08-05T06:22:09.775Z,22.64
2022-08-05T06:23:08.791Z,22.65
2022-08-05T06:24:11.864Z,22.69
2022-08-05T06:25:25.305Z,22.83
2022-08-05T06:26:20.614Z,22.84
2022-08-05T06:27:17.098Z,22.84
2022-08-05T06:28:20.615Z,22.89
2022-08-05T06:29:25.267Z,22.86
2022-08-05T06:30:18.157Z,22.87
2022-08-05T06:31:10.941Z,22.83
2022-08-05T06:32:17.290Z,22.82
2022-08-05T06:33:09.944Z,22.86
2022-08-05T06:34:09.153Z,22.90
2022-08-05T06:35:19.066Z,22.82
2022-08-05T06:36:10.064Z,22.68
2022-08-05T06:37:08.604Z,22.57
2022-08-05T06:38:11.652Z,22.59
2022-08-05T06:39:08.612Z,22.57
2022-08-05T06:40:08.574Z,22.60
2022-08-05T06:41:08.547Z,22.60
2022-08-05T06:42:09.917Z,22.59
2022-08-05T06:43:51.441Z,22.57
2022-08-05T06:44:09.518Z,22.62
2022-08-05T06:45:09.215Z,22.64
2022-08-05T06:46:08.490Z,22.64
2022-08-05T06:47:10.330Z,22.68
2022-08-05T06:48:35.976Z,22.74
2022-08-05T06:49:09.460Z,22.75
2022-08-05T06:50:08.467Z,22.77
2022-08-05T06:51:10.027Z,22.83
2022-08-05T06:52:36.758Z,22.89
2022-08-05T06:53:19.529Z,22.87
2022-08-05T06:54:09.400Z,22.93
2022-08-05T06:55:08.451Z,22.87
2022-08-05T06:56:25.812Z,22.90
2022-08-05T06:57:57.869Z,22.93
2022-08-05T06:58:30.141Z,22.96
2022-08-05T06:59:11.839Z,22.99
2022-08-05T07:00:09.670Z,22.90
2022-08-05T07:01:08.351Z,22.87
2022-08-05T07:02:09.312Z,22.90
2022-08-05T07:03:09.778Z,22.97
2022-08-05T07:04:08.274Z,23.01
2022-08-05T07:05:14.340Z,23.04
2022-08-05T07:06:14.433Z,23.08
2022-08-05T07:07:09.274Z,23.15
2022-08-05T07:08:10.687Z,23.26
2022-08-05T07:09:08.225Z,23.34
2022-08-05T07:10:08.220Z,23.40
2022-08-05T07:11:08.237Z,23.40
2022-08-05T07:12:09.218Z,23.43
2022-08-05T07:13:08.188Z,23.46
2022-08-05T07:14:08.196Z,23.52
2022-08-05T07:15:09.167Z,23.50
2022-08-05T07:16:08.208Z,23.58
2022-08-05T07:17:58.837Z,23.75
2022-08-05T07:18:11.566Z,23.83
2022-08-05T07:19:09.124Z,24.00
2022-08-05T07:20:32.049Z,24.22
2022-08-05T07:21:09.118Z,24.41
2022-08-05T07:22:08.117Z,24.54
2022-08-05T07:23:08.069Z,24.63
2022-08-05T07:24:09.207Z,24.61
2022-08-05T07:25:53.770Z,24.49
2022-08-05T07:26:09.226Z,24.32
2022-08-05T07:27:08.842Z,24.24
2022-08-05T07:28:11.437Z,24.27
2022-08-05T07:29:08.008Z,24.26
2022-08-05T07:30:27.815Z,24.27
2022-08-05T07:31:08.991Z,24.17
2022-08-05T07:32:07.962Z,23.98
2022-08-05T07:33:09.963Z,23.86
2022-08-05T07:34:08.355Z,23.75
2022-08-05T07:36:01.814Z,23.80
2022-08-05T07:36:21.536Z,23.79
2022-08-05T07:37:11.484Z,23.76
2022-08-05T07:38:07.953Z,23.80
2022-08-05T07:39:07.971Z,23.85
2022-08-05T07:40:32.383Z,23.92
2022-08-05T07:42:08.121Z,23.83
2022-08-05T07:42:15.222Z,23.79
2022-08-05T07:43:20.490Z,23.67
2022-08-05T07:44:18.805Z,23.64
2022-08-05T07:45:09.428Z,23.68
2022-08-05T07:46:24.867Z,23.68
2022-08-05T07:47:10.126Z,23.68
2022-08-05T07:48:07.801Z,23.72
2022-08-05T07:49:08.065Z,23.76
2022-08-05T07:50:07.796Z,23.76
2022-08-05T07:51:08.546Z,23.76
2022-08-05T07:52:08.757Z,23.77
2022-08-05T07:53:07.748Z,23.75
2022-08-05T07:54:08.534Z,23.82
2022-08-05T07:55:16.030Z,23.86
2022-08-05T07:57:00.667Z,23.87
2022-08-05T07:57:22.754Z,23.97
2022-08-05T07:58:09.075Z,23.95
2022-08-05T07:59:08.777Z,23.86
2022-08-05T08:00:11.435Z,23.83
2022-08-05T08:01:12.131Z,23.90
2022-08-05T08:02:07.646Z,24.01
2022-08-05T08:03:15.408Z,24.07
2022-08-05T08:04:08.612Z,24.12
2022-08-05T08:05:07.650Z,24.13
2022-08-05T08:06:07.592Z,24.12
2022-08-05T08:07:07.657Z,24.19
2022-08-05T08:08:07.582Z,24.22
2022-08-05T08:09:08.583Z,24.17
2022-08-05T08:10:07.563Z,24.22
2022-08-05T08:11:08.908Z,24.26
2022-08-05T08:12:14.672Z,24.32
2022-08-05T08:13:08.533Z,24.27
2022-08-05T08:14:07.548Z,24.29
2022-08-05T08:15:13.963Z,24.31
2022-08-05T08:16:35.038Z,24.31
2022-08-05T08:17:08.494Z,24.24
2022-08-05T08:18:14.022Z,24.23
2022-08-05T08:19:08.460Z,24.32
2022-08-05T08:20:21.965Z,24.34
2022-08-05T08:21:09.415Z,24.27
2022-08-05T08:22:09.039Z,24.35
2022-08-05T08:23:07.421Z,24.37
2022-08-05T08:24:13.771Z,24.38
2022-08-05T08:25:16.609Z,24.42
2022-08-05T08:26:08.406Z,24.57
2022-08-05T08:27:07.432Z,24.73
2022-08-05T08:28:07.385Z,24.82
2022-08-05T08:30:03.266Z,24.82
2022-08-05T08:30:29.744Z,24.88
2022-08-05T08:31:08.357Z,24.95
2022-08-05T08:32:07.329Z,25.02
2022-08-05T08:33:08.362Z,25.01
2022-08-05T08:34:07.318Z,24.97
2022-08-05T08:35:07.286Z,24.90
2022-08-05T08:36:40.105Z,24.71
2022-08-05T08:37:08.273Z,24.75
2022-08-05T08:38:07.267Z,24.75
2022-08-05T08:39:15.507Z,24.67
2022-08-05T08:40:08.225Z,24.56
2022-08-05T08:41:07.283Z,24.42
2022-08-05T08:42:32.542Z,24.41
2022-08-05T08:45:19.496Z,24.50
2022-08-05T08:45:20.173Z,24.56
2022-08-05T08:45:20.397Z,24.63
2022-08-05T08:46:10.007Z,24.67
2022-08-05T08:47:47.779Z,24.71
2022-08-05T08:48:11.849Z,24.68
2022-08-05T08:50:23.288Z,24.63
2022-08-05T08:50:32.239Z,24.56
2022-08-05T08:52:02.173Z,24.67
2022-08-05T08:52:13.229Z,24.73
2022-08-05T08:53:12.260Z,24.77
2022-08-05T08:54:07.053Z,24.85
2022-08-05T08:55:13.039Z,25.00
2022-08-05T08:56:08.026Z,25.13
2022-08-05T08:57:11.200Z,25.27
2022-08-05T08:58:06.997Z,25.42
2022-08-05T08:59:19.342Z,25.56
2022-08-05T09:00:07.977Z,25.65
2022-08-05T09:01:07.046Z,25.79
2022-08-05T09:02:08.570Z,25.91
2022-08-05T09:03:06.972Z,25.98
2022-08-05T09:04:06.929Z,25.94
2022-08-05T09:05:17.943Z,25.90
2022-08-05T09:06:11.132Z,26.05
2022-08-05T09:07:10.591Z,26.18
2022-08-05T09:08:06.944Z,26.17
2022-08-05T09:09:06.893Z,26.18
2022-08-05T09:10:06.872Z,26.20
2022-08-05T09:11:06.862Z,25.77
2022-08-05T09:12:20.083Z,25.80
2022-08-05T09:13:08.017Z,25.87
2022-08-05T09:14:54.368Z,25.98
2022-08-05T09:15:07.829Z,26.05
2022-08-05T09:16:06.793Z,26.04
2022-08-05T09:17:09.512Z,25.69
2022-08-05T09:18:08.779Z,25.56
2022-08-05T09:19:07.028Z,25.54
2022-08-05T09:20:06.778Z,25.35
2022-08-05T09:21:11.658Z,25.37
2022-08-05T09:22:23.204Z,25.34
2022-08-05T09:23:09.493Z,25.38
2022-08-05T09:24:06.796Z,25.22
2022-08-05T09:25:13.793Z,25.24
2022-08-05T09:26:08.488Z,25.28
2022-08-05T09:27:06.677Z,25.22
2022-08-05T09:28:06.665Z,25.16
2022-08-05T09:29:06.669Z,25.35
2022-08-05T09:30:06.806Z,25.44
2022-08-05T09:31:22.776Z,25.61
2022-08-05T09:32:41.787Z,25.79
2022-08-05T09:33:07.860Z,25.83
2022-08-05T09:34:06.637Z,25.80
2022-08-05T09:35:06.597Z,25.82
2022-08-05T09:36:11.828Z,25.86
2022-08-05T09:37:15.133Z,25.93
2022-08-05T09:38:16.749Z,25.74
2022-08-05T09:39:18.020Z,25.56
2022-08-05T09:40:07.589Z,25.62
2022-08-05T09:41:06.534Z,25.71
2022-08-05T09:42:07.844Z,25.80
2022-08-05T09:43:08.585Z,25.99
2022-08-05T09:44:06.539Z,25.71
2022-08-05T09:46:04.630Z,25.54
2022-08-05T09:46:08.881Z,25.49
2022-08-05T09:47:06.459Z,25.34
2022-08-05T09:48:07.472Z,25.35
2022-08-05T09:49:08.301Z,25.38
2022-08-05T09:50:07.433Z,25.43
2022-08-05T09:51:14.830Z,25.50
2022-08-05T09:52:07.474Z,25.49
2022-08-05T09:53:09.094Z,25.52
2022-08-05T09:54:07.425Z,25.35
2022-08-05T09:55:58.679Z,25.37
2022-08-05T09:56:13.015Z,25.42
2022-08-05T09:57:23.367Z,25.38
2022-08-05T09:58:07.347Z,25.20
2022-08-05T09:59:06.362Z,25.20
2022-08-05T10:00:08.354Z,25.37
2022-08-05T10:01:15.107Z,25.22
2022-08-05T10:02:07.286Z,25.15
2022-08-05T10:03:06.354Z,25.10
2022-08-05T10:04:10.745Z,25.22
2022-08-05T10:05:08.014Z,25.46
2022-08-05T10:06:07.764Z,25.46
2022-08-05T10:07:19.524Z,25.30
2022-08-05T10:08:35.290Z,25.25
2022-08-05T10:09:07.218Z,25.38
2022-08-05T10:10:14.978Z,25.50
2022-08-05T10:11:07.218Z,25.46
2022-08-05T10:12:18.711Z,25.44
2022-08-05T10:13:09.849Z,25.50
2022-08-05T10:14:06.161Z,25.61
2022-08-05T10:15:06.141Z,25.71
2022-08-05T10:16:06.170Z,25.62
2022-08-05T10:17:06.128Z,25.53
2022-08-05T10:18:07.184Z,25.56
2022-08-05T10:19:09.456Z,25.57
2022-08-05T10:20:09.942Z,25.54
2022-08-05T10:21:08.649Z,25.67
2022-08-05T10:22:07.072Z,25.64
2022-08-05T10:23:21.866Z,25.61
2022-08-05T10:24:10.889Z,25.52
2022-08-05T10:25:06.034Z,25.56
2022-08-05T10:26:07.157Z,25.72
2022-08-05T10:27:07.613Z,25.84
2022-08-05T10:28:16.772Z,25.79
2022-08-05T10:29:06.997Z,25.75
2022-08-05T10:31:20.620Z,25.72
2022-08-05T10:32:53.221Z,25.86
2022-08-05T10:32:54.909Z,25.82
2022-08-05T10:33:09.296Z,25.94
2022-08-05T10:34:07.969Z,26.01
2022-08-05T10:35:05.936Z,26.12
2022-08-05T10:36:05.931Z,26.21
2022-08-05T10:37:05.916Z,26.09
2022-08-05T10:38:05.936Z,26.24
2022-08-05T10:39:11.858Z,26.31
2022-08-05T10:40:18.189Z,26.42
2022-08-05T10:41:06.940Z,26.32
2022-08-05T10:42:05.860Z,26.25
2022-08-05T10:43:05.844Z,26.17
2022-08-05T10:44:05.869Z,26.20
2022-08-05T10:45:09.654Z,26.20
2022-08-05T10:46:07.071Z,26.12
2022-08-05T10:47:05.814Z,25.99
2022-08-05T10:48:31.114Z,25.97
2022-08-05T10:49:10.175Z,26.04
2022-08-05T10:50:32.146Z,25.94
2022-08-05T10:51:22.394Z,26.02
2022-08-05T10:52:10.412Z,26.15
2022-08-05T10:53:05.733Z,26.22
2022-08-05T10:54:28.484Z,26.17
2022-08-05T10:55:06.896Z,26.21
2022-08-05T10:56:21.240Z,26.28
2022-08-05T10:57:06.683Z,26.22
2022-08-05T10:58:05.676Z,26.35
2022-08-05T10:59:12.129Z,26.54
2022-08-05T11:00:09.902Z,26.62
2022-08-05T11:01:06.685Z,26.83
2022-08-05T11:02:05.721Z,26.91
2022-08-05T11:03:24.258Z,27.01
2022-08-05T11:04:06.616Z,26.92
2022-08-05T11:05:05.594Z,26.87
2022-08-05T11:06:05.640Z,26.77
2022-08-05T11:07:05.683Z,26.83
2022-08-05T11:08:22.169Z,26.91
2022-08-05T11:09:06.558Z,26.92
2022-08-05T11:10:10.023Z,26.91
2022-08-05T11:11:14.565Z,26.69
2022-08-05T11:12:06.548Z,26.65
2022-08-05T11:13:05.536Z,26.52
2022-08-05T11:14:05.499Z,26.47
2022-08-05T11:15:19.455Z,26.36
2022-08-05T11:16:06.479Z,26.27
2022-08-05T11:17:56.828Z,26.21
2022-08-05T11:18:06.477Z,26.24
2022-08-05T11:20:11.121Z,25.99
2022-08-05T11:20:16.950Z,26.09
2022-08-05T11:21:11.984Z,25.99
2022-08-05T11:22:06.411Z,25.99
2022-08-05T11:23:08.805Z,25.90
2022-08-05T11:24:30.081Z,25.74
2022-08-05T11:25:16.914Z,25.59
2022-08-05T11:26:08.662Z,25.39
2022-08-05T11:27:05.389Z,25.27
2022-08-05T11:28:05.335Z,25.31
2022-08-05T11:29:13.255Z,25.38
2022-08-05T11:30:06.313Z,25.49
2022-08-05T11:31:06.161Z,25.61
2022-08-05T11:32:05.294Z,25.72
2022-08-05T11:33:05.302Z,25.67
2022-08-05T11:34:06.323Z,25.69
2022-08-05T11:35:05.255Z,25.77
2022-08-05T11:36:08.694Z,25.87
2022-08-05T11:38:14.595Z,25.90
2022-08-05T11:38:29.748Z,25.98
2022-08-05T11:39:06.260Z,26.08
2022-08-05T11:40:05.336Z,26.01
2022-08-05T11:41:34.226Z,25.83
2022-08-05T11:42:06.180Z,25.83
2022-08-05T11:43:05.188Z,25.77
2022-08-05T11:44:07.828Z,25.74
2022-08-05T11:45:05.384Z,25.65
2022-08-05T11:46:27.365Z,25.52
2022-08-05T11:47:11.044Z,25.38
2022-08-05T11:48:06.127Z,25.28
2022-08-05T11:49:05.109Z,25.24
2022-08-05T11:50:05.100Z,25.20
2022-08-05T11:51:05.122Z,25.22
2022-08-05T11:52:11.109Z,25.15
2022-08-05T11:53:06.388Z,25.13
2022-08-05T11:54:05.106Z,25.27
2022-08-05T11:55:07.493Z,25.49
2022-08-05T11:56:06.063Z,25.69
2022-08-05T11:57:08.796Z,25.94
2022-08-05T11:58:10.289Z,26.05
2022-08-05T11:59:06.006Z,26.40
2022-08-05T12:00:06.084Z,26.47
2022-08-05T12:01:08.383Z,26.69
2022-08-05T12:02:05.998Z,26.84
2022-08-05T12:03:05.991Z,26.57
2022-08-05T12:04:04.943Z,26.55
2022-08-05T12:05:07.279Z,26.35
2022-08-05T12:06:06.532Z,26.20
2022-08-05T12:07:05.935Z,26.15
2022-08-05T12:08:09.745Z,26.35
2022-08-05T12:09:05.893Z,26.43
2022-08-05T12:10:09.304Z,26.40
2022-08-05T12:11:06.351Z,26.47
2022-08-05T12:12:04.849Z,26.84
2022-08-05T12:13:16.659Z,27.21
2022-08-05T12:14:05.831Z,27.17
2022-08-05T12:15:04.840Z,26.81
2022-08-05T12:16:04.797Z,26.47
2022-08-05T12:18:00.659Z,26.57
2022-08-05T12:18:10.831Z,26.81
2022-08-05T12:19:05.779Z,26.84
2022-08-05T12:20:25.692Z,26.58
2022-08-05T12:21:05.785Z,26.52
2022-08-05T12:22:04.741Z,26.31
2022-08-05T12:23:04.723Z,26.29
2022-08-05T12:24:07.111Z,26.40
2022-08-05T12:25:04.702Z,26.43
2022-08-05T12:26:04.698Z,26.47
2022-08-05T12:27:09.746Z,26.09
2022-08-05T12:28:05.692Z,25.89
2022-08-05T12:29:04.661Z,25.90
2022-08-05T12:30:04.679Z,25.99
2022-08-05T12:31:04.644Z,25.87
2022-08-05T12:32:04.670Z,25.98
2022-08-05T12:33:07.348Z,25.99
2022-08-05T12:34:05.603Z,26.01
2022-08-05T12:35:04.593Z,25.99
2022-08-05T12:36:08.170Z,26.11
2022-08-05T12:37:04.574Z,26.09
2022-08-05T12:38:04.602Z,26.20
2022-08-05T12:39:05.648Z,26.21
2022-08-05T12:40:10.649Z,26.17
2022-08-05T12:41:08.593Z,26.15
2022-08-05T12:42:05.539Z,26.22
2022-08-05T12:43:04.530Z,26.24
2022-08-05T12:44:04.506Z,26.28
2022-08-05T12:45:04.483Z,26.31
2022-08-05T12:46:05.495Z,26.22
2022-08-05T12:47:04.499Z,26.08
2022-08-05T12:48:26.947Z,26.01
2022-08-05T12:49:12.878Z,26.09
2022-08-05T12:50:06.368Z,26.17
2022-08-05T12:51:04.435Z,26.36
2022-08-05T12:52:10.256Z,26.35
2022-08-05T12:53:05.393Z,26.32